Flag Pond, TN (37657)

10:19 AM EDT on September 02, 2014 (GMT -0400)
N4WPP | Change Station
CLOSE
Current Station
Personal Weather Station
Location: Flag Pond, TN
Elevation: 2680 ft
Nearby Weather Stations

Elev 2680 ft 35.99 °N, 82.56 °W | Updated 7 seconds ago

Partly Cloudy
Partly Cloudy
77.4 °F
Feels Like 79 °F
N
3.1
Wind Variable Wind from South
Gusts 3.8 mph

Today
High -- | Low -- °F
--% Chance of Precip.
Yesterday
High -- | Low -- °F
Precip. -- in
7:02 AM 7:56 PM
First Quarter, 52% visible
Pressure 30.06 in
Visibility 10.0 miles
Clouds Scattered Clouds 4300 ft
Mostly Cloudy 5000 ft
Overcast 7000 ft
Heat Index 79 °F
Dew Point 72 °F
Humidity 84%
Rainfall 0.00 in
Snow Depth Not available.
UV 1 out of 12
Pollen 9.40 out of 12
Air Quality Not available.
Flu Activity Not available.
METAR KTRI 021353Z 00000KT 10SM SCT043 BKN050 OVC070 24/19 A3014 RMK AO2 SLP180 T02390194

More Conditions Fewer Conditions

Pressure 30.06 in
Visibility 10.0 miles
Clouds Scattered Clouds 4300 ft
Mostly Cloudy 5000 ft
Overcast 7000 ft
Heat Index 79 °F
Dew Point 72 °F
Humidity 84%
Rainfall 0.00 in
Snow Depth Not available.
UV 1 out of 12
Pollen 9.40 out of 12
Air Quality Not available.
Flu Activity Not available.
METAR KTRI 021353Z 00000KT 10SM SCT043 BKN050 OVC070 24/19 A3014 RMK AO2 SLP180 T02390194

More Conditions Fewer Conditions

10-Day Weather Forecast

Almanac

Astronomy

Sep. 02, 2014 Rise Set
Actual Time 7:02 AM EDT 7:56 PM EDT
Civil Twilight 6:36 AM EDT 8:22 PM EDT
Nautical Twilight 6:05 AM EDT 8:53 PM EDT
Astronomical Twilight 5:33 AM EDT 9:25 PM EDT
Moon 2:32 PM EDT 12:10 AM EDT
Length of Visible Light 13h 45m
Length of Day
12h 53m
Tomorrow will be 2m 11s shorter.
First Quarter, 52% of the Moon is Illuminated
Today
First Quarter
Sep 8
Full
Sep 15
Last Quarter
Sep 24
New
Oct 1
First Quarter

Today's Extremes

State Highs State Lows

Community

WunderPhotos

Upload Photos

1,749,677 photos uploaded!

WunderBlogs® & News

Nearby

Snow Depth

Station Depth Elevation
No new snow has been reported.

Earthquake Activity

City Distance Mag. Time & Date
No recent earthquake activity has been reported nearby.
Minimum magnitude displayed is 2.5.

Coastal Water Temperatures

Place Temperature
No Stations Reporting

Nearby Weather Stations